createdAt,value
2023-06-07T00:01:58.674Z,68.94
2023-06-07T00:04:46.288Z,69.60
2023-06-07T00:07:31.699Z,69.36
2023-06-07T00:10:16.957Z,69.66
2023-06-07T00:13:02.597Z,69.80
2023-06-07T00:15:48.320Z,69.90
2023-06-07T00:18:33.895Z,70.19
2023-06-07T00:21:21.138Z,70.17
2023-06-07T00:24:06.859Z,70.36
2023-06-07T00:26:52.264Z,70.11
2023-06-07T00:29:37.714Z,70.75
2023-06-07T00:32:23.976Z,70.59
2023-06-07T00:35:12.616Z,70.59
2023-06-07T00:37:58.140Z,70.96
2023-06-07T00:40:43.452Z,71.11
2023-06-07T00:43:28.690Z,71.07
2023-06-07T00:46:15.309Z,71.41
2023-06-07T00:49:01.571Z,71.44
2023-06-07T00:51:48.380Z,71.27
2023-06-07T00:54:33.918Z,71.50
2023-06-07T00:57:20.130Z,71.67
2023-06-07T01:00:08.089Z,71.72
2023-06-07T01:02:54.284Z,72.23
2023-06-07T01:05:39.814Z,72.30
2023-06-07T01:08:26.886Z,72.47
2023-06-07T01:11:14.087Z,72.68
2023-06-07T01:13:59.629Z,72.92
2023-06-07T01:16:49.715Z,73.15
2023-06-07T01:19:38.045Z,73.14
2023-06-07T01:22:33.889Z,73.05
2023-06-07T01:25:19.568Z,73.29
2023-06-07T01:28:07.017Z,73.93
2023-06-07T01:30:55.332Z,73.41
2023-06-07T01:33:43.656Z,73.73
2023-06-07T01:36:31.782Z,73.65
2023-06-07T01:39:20.693Z,73.87
2023-06-07T01:42:10.059Z,74.12
2023-06-07T01:44:58.194Z,74.09
2023-06-07T01:47:44.652Z,74.47
2023-06-07T01:50:30.531Z,74.75
2023-06-07T01:53:16.251Z,74.54
2023-06-07T01:56:36.978Z,74.65
2023-06-07T01:59:50.944Z,74.83
2023-06-07T02:03:02.722Z,75.06
2023-06-07T02:06:01.021Z,75.51
2023-06-07T02:08:56.059Z,75.63
2023-06-07T02:11:43.262Z,75.75
2023-06-07T02:14:29.553Z,75.71
2023-06-07T02:17:14.906Z,75.50
2023-06-07T02:20:00.648Z,75.66
2023-06-07T02:22:46.297Z,76.07
2023-06-07T02:25:35.370Z,76.17
2023-06-07T02:28:20.846Z,76.47
2023-06-07T02:31:06.455Z,76.86
2023-06-07T02:33:51.926Z,76.75
2023-06-07T02:36:41.399Z,77.10
2023-06-07T02:39:26.950Z,77.39
2023-06-07T02:42:12.101Z,77.08
2023-06-07T02:44:57.431Z,77.31
2023-06-07T02:47:44.676Z,77.28
2023-06-07T02:50:30.197Z,77.33
2023-06-07T02:53:16.199Z,77.54
2023-06-07T02:56:01.680Z,77.27
2023-06-07T02:58:46.833Z,77.67
2023-06-07T03:01:34.242Z,77.71
2023-06-07T03:04:21.180Z,77.78
2023-06-07T03:07:08.878Z,77.82
2023-06-07T03:09:58.418Z,77.85
2023-06-07T03:12:44.042Z,78.17
2023-06-07T03:15:29.266Z,77.98
2023-06-07T03:18:16.679Z,78.36
2023-06-07T03:21:07.605Z,78.58
2023-06-07T03:23:54.379Z,78.44
2023-06-07T03:26:41.173Z,78.99
2023-06-07T03:29:28.074Z,78.83
2023-06-07T03:32:14.157Z,79.06
2023-06-07T03:35:00.197Z,79.23
2023-06-07T03:37:45.726Z,79.40
2023-06-07T03:40:30.964Z,79.64
2023-06-07T03:43:18.756Z,79.41
2023-06-07T03:46:04.171Z,79.00
2023-06-07T03:48:52.817Z,79.64
2023-06-07T03:51:39.950Z,79.65
2023-06-07T03:54:26.498Z,79.54
2023-06-07T03:57:12.214Z,79.58
2023-06-07T04:00:01.701Z,79.33
2023-06-07T04:02:49.427Z,79.80
2023-06-07T04:05:39.686Z,79.21
2023-06-07T04:08:25.495Z,79.55
2023-06-07T04:11:10.722Z,79.02
2023-06-07T04:13:56.230Z,79.32
2023-06-07T04:16:45.207Z,79.56
2023-06-07T04:19:30.753Z,78.93
2023-06-07T04:22:17.695Z,79.02
2023-06-07T04:25:04.630Z,78.97
2023-06-07T04:27:50.175Z,79.43
2023-06-07T04:30:35.699Z,79.51
2023-06-07T04:33:22.386Z,79.11
2023-06-07T04:36:09.957Z,79.29
2023-06-07T04:39:02.063Z,79.32
2023-06-07T04:41:54.222Z,79.02
2023-06-07T04:44:40.898Z,78.61
2023-06-07T04:47:33.558Z,78.38
2023-06-07T04:50:22.035Z,78.49
2023-06-07T04:53:07.583Z,78.34
2023-06-07T04:55:53.079Z,78.58
2023-06-07T04:58:41.769Z,79.11
2023-06-07T05:01:31.204Z,78.74
2023-06-07T05:04:17.957Z,78.84
2023-06-07T05:07:10.035Z,78.93
2023-06-07T05:09:58.812Z,78.51
2023-06-07T05:12:44.784Z,77.77
2023-06-07T05:15:32.567Z,77.09
2023-06-07T05:18:19.927Z,77.19
2023-06-07T05:21:05.904Z,76.67
2023-06-07T05:23:51.203Z,75.69
2023-06-07T05:26:36.446Z,75.30
2023-06-07T05:29:22.742Z,75.20
2023-06-07T05:32:09.986Z,75.17
2023-06-07T05:34:58.879Z,75.15
2023-06-07T05:37:44.340Z,72.34
2023-06-07T05:40:29.724Z,71.29
2023-06-07T05:43:15.083Z,71.79
2023-06-07T05:46:01.680Z,72.33
2023-06-07T05:48:47.538Z,72.60
2023-06-07T05:51:37.765Z,74.21
2023-06-07T05:54:22.930Z,73.80
2023-06-07T05:57:08.554Z,73.50
2023-06-07T05:59:53.811Z,73.48
2023-06-07T06:02:44.168Z,73.03
2023-06-07T06:05:30.032Z,73.37
2023-06-07T06:08:16.972Z,73.40
2023-06-07T06:11:02.186Z,73.49
2023-06-07T06:13:49.655Z,72.54
2023-06-07T06:16:35.428Z,71.89
2023-06-07T06:19:21.502Z,72.23
2023-06-07T06:22:06.821Z,71.90
2023-06-07T06:24:52.007Z,70.91
2023-06-07T06:27:37.473Z,71.17
2023-06-07T06:30:24.706Z,71.18
2023-06-07T06:33:11.319Z,71.24
2023-06-07T06:35:56.702Z,70.78
2023-06-07T06:38:42.008Z,71.14
2023-06-07T06:41:27.178Z,71.13
2023-06-07T06:44:12.417Z,71.84
2023-06-07T06:46:57.680Z,71.89
2023-06-07T06:49:43.034Z,71.35
2023-06-07T06:52:28.347Z,71.48
2023-06-07T06:55:13.532Z,70.95
2023-06-07T06:57:58.941Z,71.08
2023-06-07T07:00:44.073Z,71.33
2023-06-07T07:03:29.866Z,70.79
2023-06-07T07:06:15.112Z,70.05
2023-06-07T07:09:00.850Z,69.81
2023-06-07T07:11:46.725Z,70.23
2023-06-07T07:14:31.763Z,69.91
2023-06-07T07:17:18.138Z,69.73
2023-06-07T07:20:07.247Z,69.66
2023-06-07T07:22:52.882Z,68.17
2023-06-07T07:25:38.166Z,68.45
2023-06-07T07:28:23.278Z,68.69
2023-06-07T07:31:08.991Z,68.38
2023-06-07T07:33:54.393Z,68.98
2023-06-07T07:36:40.178Z,68.88
2023-06-07T07:39:26.879Z,67.94
2023-06-07T07:42:12.267Z,67.73
2023-06-07T07:44:57.448Z,67.08
2023-06-07T07:47:45.641Z,66.12
2023-06-07T07:50:31.253Z,66.12
2023-06-07T07:53:16.530Z,65.71
2023-06-07T07:56:02.727Z,65.99
2023-06-07T07:58:51.890Z,65.49
2023-06-07T08:01:37.476Z,64.61
2023-06-07T08:04:22.628Z,64.77
2023-06-07T08:07:07.826Z,63.96
2023-06-07T08:09:53.073Z,63.62
2023-06-07T08:12:38.336Z,63.35
2023-06-07T08:15:23.721Z,63.25
2023-06-07T08:18:09.084Z,62.59
2023-06-07T08:20:55.058Z,61.97
2023-06-07T08:23:40.155Z,62.65
2023-06-07T08:26:25.530Z,62.72
2023-06-07T08:29:10.976Z,62.68
2023-06-07T08:31:57.966Z,61.74
2023-06-07T08:34:43.585Z,61.47
2023-06-07T08:37:29.178Z,60.41
2023-06-07T08:40:19.220Z,60.36
2023-06-07T08:43:04.787Z,59.88
2023-06-07T08:45:52.031Z,60.58
2023-06-07T08:48:40.981Z,60.79
2023-06-07T08:51:29.754Z,61.68
2023-06-07T08:54:21.823Z,60.47
2023-06-07T08:57:08.746Z,60.39
2023-06-07T08:59:55.526Z,60.79
2023-06-07T09:02:41.397Z,59.21
2023-06-07T09:05:26.840Z,58.26
2023-06-07T09:08:12.156Z,58.69
2023-06-07T09:10:57.550Z,58.19
2023-06-07T09:13:43.542Z,58.26
2023-06-07T09:16:29.446Z,57.88
2023-06-07T09:19:30.892Z,57.21
2023-06-07T09:22:23.479Z,56.95
2023-06-07T09:25:08.881Z,56.92
2023-06-07T09:27:56.053Z,56.86
2023-06-07T09:31:01.148Z,56.92
2023-06-07T09:33:47.524Z,57.46
2023-06-07T09:36:32.902Z,57.06
2023-06-07T09:39:27.396Z,56.53
2023-06-07T09:42:17.888Z,57.35
2023-06-07T09:45:15.561Z,58.17
2023-06-07T09:48:06.090Z,57.77
2023-06-07T09:50:59.292Z,57.83
2023-06-07T09:54:02.337Z,58.25
2023-06-07T09:56:47.802Z,58.60
2023-06-07T09:59:33.060Z,58.68
2023-06-07T10:02:26.729Z,59.10
2023-06-07T10:05:16.923Z,59.10
2023-06-07T10:08:04.414Z,59.08
2023-06-07T10:10:53.549Z,59.53
2023-06-07T10:13:40.725Z,59.52
2023-06-07T10:16:30.407Z,59.34
2023-06-07T10:19:22.040Z,59.79
2023-06-07T10:22:16.268Z,60.50
2023-06-07T10:25:13.241Z,60.42
2023-06-07T10:28:22.576Z,60.54
2023-06-07T10:31:13.572Z,60.08
2023-06-07T10:34:00.997Z,60.16
2023-06-07T10:36:46.415Z,60.57
2023-06-07T10:39:31.426Z,60.31
2023-06-07T10:42:18.362Z,58.66
2023-06-07T10:45:05.886Z,57.51
2023-06-07T10:47:51.736Z,56.62
2023-06-07T10:50:47.950Z,57.08
2023-06-07T10:53:57.269Z,56.63
2023-06-07T10:56:43.267Z,56.07
2023-06-07T10:59:28.548Z,55.48
2023-06-07T11:02:21.452Z,54.84
2023-06-07T11:05:07.546Z,54.65
2023-06-07T11:08:32.046Z,53.73
2023-06-07T11:11:42.327Z,52.86
2023-06-07T11:14:28.047Z,53.10
2023-06-07T11:17:55.869Z,52.45
2023-06-07T11:20:43.004Z,52.75
2023-06-07T11:23:29.899Z,51.21
2023-06-07T11:26:15.952Z,51.88
2023-06-07T11:29:01.905Z,51.64
2023-06-07T11:31:49.344Z,50.78
2023-06-07T11:34:34.823Z,50.25
2023-06-07T11:37:20.210Z,48.60
2023-06-07T11:40:08.946Z,49.25
2023-06-07T11:42:54.360Z,49.54
2023-06-07T11:45:44.412Z,48.12
2023-06-07T11:48:31.914Z,48.88
2023-06-07T11:51:18.301Z,49.01
2023-06-07T11:54:04.062Z,50.17
2023-06-07T11:56:49.250Z,49.18
2023-06-07T11:59:34.796Z,48.32
2023-06-07T12:02:20.739Z,49.11
2023-06-07T12:05:07.521Z,49.43
2023-06-07T12:07:58.752Z,48.51
2023-06-07T12:10:52.849Z,49.36
2023-06-07T12:13:39.581Z,49.55
2023-06-07T12:16:25.021Z,48.12
2023-06-07T12:19:10.686Z,47.38
2023-06-07T12:22:05.215Z,46.86
2023-06-07T12:24:50.357Z,47.68
2023-06-07T12:27:38.066Z,46.52
2023-06-07T12:30:23.250Z,45.64
2023-06-07T12:33:18.835Z,45.12
2023-06-07T12:36:06.685Z,45.94
2023-06-07T12:38:54.122Z,46.14
2023-06-07T12:41:40.334Z,45.61
2023-06-07T12:44:26.034Z,44.51
2023-06-07T12:47:12.283Z,45.21
2023-06-07T12:49:59.339Z,43.64
2023-06-07T12:52:44.811Z,43.87
2023-06-07T12:55:30.087Z,42.99
2023-06-07T12:58:15.401Z,43.00
2023-06-07T13:01:03.862Z,43.40
2023-06-07T13:03:51.001Z,42.26
2023-06-07T13:06:37.402Z,43.34
2023-06-07T13:09:23.044Z,41.85
2023-06-07T13:12:10.188Z,42.72
2023-06-07T13:14:55.558Z,42.81
2023-06-07T13:17:41.392Z,42.39
2023-06-07T13:20:26.936Z,43.47
2023-06-07T13:23:12.231Z,43.25
2023-06-07T13:25:57.540Z,43.40
2023-06-07T13:28:45.280Z,44.23
2023-06-07T13:31:30.832Z,43.16
2023-06-07T13:34:16.299Z,44.32
2023-06-07T13:37:01.634Z,44.87
2023-06-07T13:39:47.065Z,45.46
2023-06-07T13:42:32.324Z,45.91
2023-06-07T13:45:18.227Z,46.18
2023-06-07T13:48:03.849Z,46.16
2023-06-07T13:50:52.398Z,46.65
2023-06-07T13:53:38.219Z,46.46
2023-06-07T13:56:23.692Z,46.19
2023-06-07T13:59:09.274Z,46.66
2023-06-07T14:01:55.499Z,44.57
2023-06-07T14:04:41.040Z,44.15
2023-06-07T14:07:27.031Z,45.00
2023-06-07T14:10:12.958Z,45.82
2023-06-07T14:12:58.218Z,45.61
2023-06-07T14:15:43.570Z,45.53
2023-06-07T14:18:29.001Z,45.25
2023-06-07T14:21:15.926Z,43.83
2023-06-07T14:24:01.665Z,44.58
2023-06-07T14:26:47.351Z,44.65
2023-06-07T14:29:32.659Z,45.23
2023-06-07T14:32:17.886Z,45.18
2023-06-07T14:35:03.671Z,45.60
2023-06-07T14:37:49.511Z,45.22
2023-06-07T14:40:34.717Z,46.00
2023-06-07T14:43:19.771Z,45.37
2023-06-07T14:46:07.530Z,46.03
2023-06-07T14:49:01.107Z,46.49
2023-06-07T14:51:56.789Z,45.86
2023-06-07T14:54:50.760Z,45.70
2023-06-07T14:57:36.427Z,45.35
2023-06-07T15:00:22.603Z,45.82
2023-06-07T15:03:08.775Z,46.12
2023-06-07T15:05:53.886Z,46.05
2023-06-07T15:08:39.367Z,44.72
2023-06-07T15:11:24.652Z,45.39
2023-06-07T15:14:11.076Z,45.42
2023-06-07T15:16:56.472Z,45.90
2023-06-07T15:19:41.981Z,45.36
2023-06-07T15:22:27.751Z,46.05
2023-06-07T15:25:13.092Z,46.30
2023-06-07T15:27:58.517Z,46.01
2023-06-07T15:30:43.826Z,46.75
2023-06-07T15:33:29.153Z,46.81
2023-06-07T15:36:14.518Z,46.56
2023-06-07T15:38:59.619Z,46.35
2023-06-07T15:42:00.555Z,46.41
2023-06-07T15:44:46.953Z,46.46
2023-06-07T15:47:32.256Z,46.73
2023-06-07T15:50:17.527Z,45.68
2023-06-07T15:53:05.035Z,45.56
2023-06-07T15:55:51.406Z,46.04
2023-06-07T15:58:37.600Z,45.51
2023-06-07T16:01:26.354Z,45.28
2023-06-07T16:04:11.704Z,45.32
2023-06-07T16:06:57.059Z,44.85
2023-06-07T16:09:42.384Z,45.19
2023-06-07T16:12:27.669Z,45.61
2023-06-07T16:15:13.081Z,45.04
2023-06-07T16:17:58.552Z,44.83
2023-06-07T16:20:44.145Z,44.36
2023-06-07T16:23:29.644Z,43.92
2023-06-07T16:26:15.491Z,42.17
2023-06-07T16:29:00.929Z,42.33
2023-06-07T16:31:46.239Z,40.33
2023-06-07T16:34:31.699Z,40.65
2023-06-07T16:37:16.934Z,40.09
2023-06-07T16:40:02.099Z,41.08
2023-06-07T16:42:49.702Z,42.03
2023-06-07T16:45:35.302Z,42.39
2023-06-07T16:48:20.733Z,42.53
2023-06-07T16:51:05.940Z,43.08
2023-06-07T16:53:51.321Z,43.31
2023-06-07T16:56:37.612Z,42.76
2023-06-07T16:59:23.248Z,41.80
2023-06-07T17:02:09.282Z,40.61
2023-06-07T17:04:54.674Z,39.23
2023-06-07T17:07:40.727Z,38.37
2023-06-07T17:10:37.338Z,37.37
2023-06-07T17:13:22.554Z,36.96
2023-06-07T17:16:07.713Z,36.38
2023-06-07T17:18:53.264Z,36.96
2023-06-07T17:21:38.686Z,36.71
2023-06-07T17:24:23.877Z,37.12
2023-06-07T17:27:09.779Z,36.76
2023-06-07T17:29:55.347Z,37.38
2023-06-07T17:32:41.954Z,37.76
2023-06-07T17:35:27.315Z,37.73
2023-06-07T17:38:12.814Z,38.03
2023-06-07T17:40:57.862Z,39.27
2023-06-07T17:43:43.016Z,39.68
2023-06-07T17:46:28.223Z,39.90
2023-06-07T17:49:14.650Z,40.36
2023-06-07T17:52:06.352Z,40.93
2023-06-07T17:54:59.808Z,40.99
2023-06-07T17:57:49.378Z,41.36
2023-06-07T18:00:34.584Z,42.06
2023-06-07T18:03:20.393Z,42.29
2023-06-07T18:06:05.815Z,42.58
2023-06-07T18:08:52.281Z,42.48
2023-06-07T18:11:37.866Z,42.93
2023-06-07T18:14:23.149Z,43.09
2023-06-07T18:17:09.877Z,43.24
2023-06-07T18:19:55.139Z,43.65
2023-06-07T18:22:41.194Z,44.03
2023-06-07T18:25:26.845Z,44.38
2023-06-07T18:28:11.957Z,44.85
2023-06-07T18:30:59.047Z,44.91
2023-06-07T18:33:44.314Z,45.34
2023-06-07T18:36:29.780Z,44.94
2023-06-07T18:39:15.069Z,44.94
2023-06-07T18:42:00.694Z,44.90
2023-06-07T18:44:46.314Z,45.19
2023-06-07T18:47:31.657Z,45.69
2023-06-07T18:50:17.810Z,45.84
2023-06-07T18:53:04.031Z,45.93
2023-06-07T18:55:50.733Z,46.17
2023-06-07T18:58:35.878Z,46.35
2023-06-07T19:01:21.256Z,46.75
2023-06-07T19:04:06.560Z,46.95
2023-06-07T19:06:55.376Z,47.03
2023-06-07T19:09:40.765Z,47.25
2023-06-07T19:12:28.863Z,47.53
2023-06-07T19:15:15.548Z,47.62
2023-06-07T19:18:01.121Z,48.05
2023-06-07T19:20:46.554Z,48.81
2023-06-07T19:23:32.698Z,48.75
2023-06-07T19:26:17.963Z,48.55
2023-06-07T19:29:04.076Z,48.89
2023-06-07T19:31:49.303Z,48.94
2023-06-07T19:34:38.438Z,49.49
2023-06-07T19:37:24.014Z,49.42
2023-06-07T19:40:15.455Z,49.67
2023-06-07T19:43:02.834Z,50.01
2023-06-07T19:45:48.332Z,50.01
2023-06-07T19:48:34.535Z,50.02
2023-06-07T19:51:22.110Z,50.23
2023-06-07T19:54:11.341Z,50.49
2023-06-07T19:56:56.625Z,50.00
2023-06-07T19:59:42.324Z,50.54
2023-06-07T20:02:28.580Z,50.64
2023-06-07T20:05:15.977Z,50.42
2023-06-07T20:08:01.596Z,50.64
2023-06-07T20:10:46.815Z,50.68
2023-06-07T20:13:32.113Z,51.06
2023-06-07T20:16:18.950Z,50.85
2023-06-07T20:19:04.804Z,51.18
2023-06-07T20:21:50.206Z,52.06
2023-06-07T20:24:35.448Z,51.88
2023-06-07T20:27:20.686Z,52.40
2023-06-07T20:30:07.655Z,52.74
2023-06-07T20:32:53.084Z,53.15
2023-06-07T20:35:38.308Z,53.18
2023-06-07T20:38:23.701Z,53.75
2023-06-07T20:41:08.889Z,53.73
2023-06-07T20:43:54.380Z,53.80
2023-06-07T20:46:39.598Z,54.15
2023-06-07T20:49:24.924Z,54.58
2023-06-07T20:52:10.309Z,54.38
2023-06-07T20:54:55.697Z,54.71
2023-06-07T20:57:41.191Z,55.04
2023-06-07T21:00:27.113Z,55.29
2023-06-07T21:03:12.757Z,55.30
2023-06-07T21:05:57.997Z,55.47
2023-06-07T21:08:43.193Z,55.57
2023-06-07T21:11:28.448Z,55.47
2023-06-07T21:14:14.526Z,55.70
2023-06-07T21:16:59.989Z,56.05
2023-06-07T21:19:45.166Z,56.11
2023-06-07T21:22:30.802Z,56.28
2023-06-07T21:25:16.334Z,56.33
2023-06-07T21:28:02.575Z,56.64
2023-06-07T21:30:47.875Z,56.71
2023-06-07T21:33:35.689Z,56.83
2023-06-07T21:36:21.399Z,56.82
2023-06-07T21:39:06.668Z,56.99
2023-06-07T21:41:52.598Z,56.76
2023-06-07T21:44:38.689Z,57.11
2023-06-07T21:47:24.192Z,57.49
2023-06-07T21:50:10.757Z,57.35
2023-06-07T21:52:56.555Z,57.65
2023-06-07T21:55:44.116Z,57.47
2023-06-07T21:58:29.714Z,57.75
2023-06-07T22:01:15.103Z,57.80
2023-06-07T22:04:00.456Z,57.23
2023-06-07T22:06:45.849Z,57.50
2023-06-07T22:09:31.135Z,57.65
2023-06-07T22:12:20.042Z,58.08
2023-06-07T22:15:05.955Z,58.12
2023-06-07T22:17:55.406Z,58.10
2023-06-07T22:20:41.277Z,58.66
2023-06-07T22:23:28.234Z,58.65
2023-06-07T22:26:16.187Z,59.26
2023-06-07T22:29:02.979Z,59.28
2023-06-07T22:31:49.266Z,59.55
2023-06-07T22:34:35.930Z,59.88
2023-06-07T22:37:22.325Z,59.75
2023-06-07T22:40:10.598Z,60.14
2023-06-07T22:42:56.132Z,60.17
2023-06-07T22:45:41.380Z,60.65
2023-06-07T22:48:29.864Z,60.53
2023-06-07T22:51:18.999Z,61.14
2023-06-07T22:54:04.615Z,61.41
2023-06-07T22:56:49.986Z,61.85
2023-06-07T22:59:35.207Z,62.20
2023-06-07T23:02:20.940Z,62.63
2023-06-07T23:05:07.195Z,62.91
2023-06-07T23:07:52.512Z,63.45
2023-06-07T23:10:38.068Z,63.56
2023-06-07T23:13:23.687Z,63.79
2023-06-07T23:16:09.179Z,64.04
2023-06-07T23:18:54.545Z,64.54
2023-06-07T23:21:45.526Z,64.82
2023-06-07T23:24:31.033Z,64.84
2023-06-07T23:27:16.399Z,65.31
2023-06-07T23:30:01.549Z,65.86
2023-06-07T23:32:46.697Z,66.31
2023-06-07T23:35:32.219Z,66.37
2023-06-07T23:38:18.295Z,66.90
2023-06-07T23:41:03.721Z,67.06
2023-06-07T23:43:49.081Z,67.54
2023-06-07T23:46:34.290Z,67.88
2023-06-07T23:49:20.595Z,68.18
2023-06-07T23:52:06.399Z,68.55
2023-06-07T23:54:52.022Z,68.72
2023-06-07T23:57:37.416Z,68.98
